West Point, Virginia
Current Conditions -  °F | °C
As of 8:35 PM on Wednesday 26 Nov 2014 (Local Time) from KFYJ Reporting Station
Overcast Overcast  
Wind Chill: 36°   Ceiling: 1100
Heat Index: 40°   Visibility: 10mi
Dew Point: 37°   Wind: 6mph
Humidity: 88%   Direction: 310°NW
Pressure: 30"   Gusts: NA
Location:  37.53°N, 76.8°W
Report Text: KFYJ 270135Z AUTO 31005KT 10SM OVC011 05/03 A3000 RMK AO2 T00450026
Loading
Personal Weather Stations






























Interactive Weather Map New forecast layout! Learn more

10-Day Weather Forecast

Advertisements
Track Severe Weather on mobile